Terminal Aerodrome Forecast
Issued by NWS North Platte, NE

Home | Current Version | Previous Version | Text Only | Print | Product List | Glossary Off
Versions: 1 2 3 4 5 6 7 8 9 10 11 12 13 14 15 16 17 18 19 20

582
FTUS43 KLBF 211008 AAB
TAFVTN
TAF AMD
KVTN 211008Z 2110/2206 09009KT 2SM -SN BR OVC015
      TEMPO 2110/2112 1/2SM SN VV006
     FM211500 07009KT P6SM OVC025
     FM220000 10011KT P6SM OVC035
     FM220300 12011KT P6SM OVC050=

USA.gov is the U.S. government's official web portal to all federal, state and local government web resources and services.